createdAt,value
2022-08-06T00:00:06.767Z,20.04
2022-08-06T00:02:31.759Z,19.97
2022-08-06T00:05:05.107Z,19.84
2022-08-06T00:07:48.234Z,19.78
2022-08-06T00:10:19.039Z,19.63
2022-08-06T00:12:48.720Z,19.61
2022-08-06T00:16:09.958Z,19.70
2022-08-06T00:18:09.195Z,19.70
2022-08-06T00:20:42.102Z,19.48
2022-08-06T00:23:16.573Z,19.26
2022-08-06T00:25:52.567Z,19.03
2022-08-06T00:28:30.760Z,18.80
2022-08-06T00:31:06.007Z,18.85
2022-08-06T00:33:43.931Z,18.98
2022-08-06T00:36:28.606Z,18.90
2022-08-06T00:39:00.996Z,18.72
2022-08-06T00:41:42.290Z,18.76
2022-08-06T00:44:14.389Z,18.62
2022-08-06T00:46:44.883Z,18.60
2022-08-06T00:49:13.521Z,18.55
2022-08-06T00:52:01.786Z,18.78
2022-08-06T00:54:35.993Z,18.53
2022-08-06T00:57:06.934Z,18.69
2022-08-06T00:59:38.885Z,18.72
2022-08-06T01:02:09.846Z,18.81
2022-08-06T01:04:38.726Z,18.58
2022-08-06T01:07:09.145Z,18.59
2022-08-06T01:09:45.969Z,18.44
2022-08-06T01:12:33.471Z,18.25
2022-08-06T01:15:16.193Z,18.24
2022-08-06T01:17:59.525Z,18.34
2022-08-06T01:21:56.948Z,18.43
2022-08-06T01:23:54.080Z,18.41
2022-08-06T01:26:46.646Z,18.35
2022-08-06T01:29:23.949Z,18.34
2022-08-06T01:32:07.088Z,18.27
2022-08-06T01:34:41.914Z,18.25
2022-08-06T01:37:25.032Z,18.28
2022-08-06T01:40:02.616Z,18.34
2022-08-06T01:42:36.288Z,18.22
2022-08-06T01:45:14.468Z,18.12
2022-08-06T01:47:54.630Z,18.18
2022-08-06T01:50:30.868Z,18.10
2022-08-06T01:53:03.552Z,18.13
2022-08-06T01:55:59.087Z,18.01
2022-08-06T01:58:31.902Z,17.95
2022-08-06T02:01:08.606Z,17.88
2022-08-06T02:03:49.967Z,17.65
2022-08-06T02:06:33.379Z,17.59
2022-08-06T02:09:21.970Z,17.31
2022-08-06T02:12:03.646Z,17.44
2022-08-06T02:14:41.642Z,17.48
2022-08-06T02:17:16.204Z,17.29
2022-08-06T02:20:05.019Z,17.32
2022-08-06T02:22:42.402Z,17.15
2022-08-06T02:25:22.362Z,17.07
2022-08-06T02:27:59.826Z,16.84
2022-08-06T02:30:36.732Z,16.78
2022-08-06T02:33:08.947Z,16.81
2022-08-06T02:35:46.670Z,16.65
2022-08-06T02:38:28.702Z,16.76
2022-08-06T02:41:03.920Z,16.55
2022-08-06T02:43:41.234Z,16.51
2022-08-06T02:46:17.376Z,16.46
2022-08-06T02:48:53.308Z,16.44
2022-08-06T02:52:10.094Z,16.27
2022-08-06T02:54:26.287Z,16.21
2022-08-06T02:57:04.290Z,15.87
2022-08-06T02:59:46.037Z,15.60
2022-08-06T03:02:27.494Z,15.61
2022-08-06T03:05:02.080Z,15.82
2022-08-06T03:07:34.399Z,15.69
2022-08-06T03:10:13.033Z,15.54
2022-08-06T03:12:44.071Z,15.42
2022-08-06T03:15:58.380Z,15.05
2022-08-06T03:18:08.093Z,14.80
2022-08-06T03:20:38.958Z,14.92
2022-08-06T03:23:10.881Z,14.96
2022-08-06T03:25:42.515Z,14.95
2022-08-06T03:28:22.442Z,14.96
2022-08-06T03:30:55.271Z,14.96
2022-08-06T03:33:41.893Z,15.03
2022-08-06T03:36:17.280Z,14.84
2022-08-06T03:38:54.636Z,14.75
2022-08-06T03:41:29.166Z,14.85
2022-08-06T03:44:05.121Z,14.91
2022-08-06T03:46:39.441Z,15.16
2022-08-06T03:49:26.063Z,15.31
2022-08-06T03:51:58.242Z,15.43
2022-08-06T03:54:34.202Z,15.63
2022-08-06T03:57:09.878Z,15.70
2022-08-06T03:59:59.010Z,15.67
2022-08-06T04:02:37.315Z,15.61
2022-08-06T04:05:21.078Z,15.44
2022-08-06T04:07:59.771Z,15.52
2022-08-06T04:10:38.980Z,15.43
2022-08-06T04:14:03.930Z,15.36
2022-08-06T04:16:02.021Z,15.58
2022-08-06T04:18:41.545Z,15.44
2022-08-06T04:21:20.799Z,15.49
2022-08-06T04:24:10.323Z,15.49
2022-08-06T04:26:41.319Z,15.73
2022-08-06T04:29:17.933Z,15.78
2022-08-06T04:32:11.584Z,15.71
2022-08-06T04:36:07.649Z,15.77
2022-08-06T04:37:39.022Z,15.62
2022-08-06T04:40:15.223Z,15.67
2022-08-06T04:42:44.740Z,15.65
2022-08-06T04:46:16.506Z,15.89
2022-08-06T04:48:06.106Z,15.82
2022-08-06T04:50:37.255Z,15.86
2022-08-06T04:53:09.095Z,15.92
2022-08-06T04:55:41.481Z,15.84
2022-08-06T04:58:32.895Z,15.57
2022-08-06T05:01:10.833Z,15.71
2022-08-06T05:04:06.959Z,15.58
2022-08-06T05:06:40.764Z,15.50
2022-08-06T05:09:23.418Z,15.47
2022-08-06T05:12:18.170Z,15.84
2022-08-06T05:14:55.400Z,15.78
2022-08-06T05:17:34.924Z,15.71
2022-08-06T05:20:27.405Z,15.64
2022-08-06T05:23:08.982Z,15.68
2022-08-06T05:25:54.140Z,15.70
2022-08-06T05:28:27.646Z,15.73
2022-08-06T05:30:57.554Z,15.82
2022-08-06T05:33:29.827Z,15.83
2022-08-06T05:36:01.800Z,15.83
2022-08-06T05:38:35.698Z,15.84
2022-08-06T05:41:07.617Z,15.62
2022-08-06T05:44:00.403Z,15.74
2022-08-06T05:46:28.347Z,15.80
2022-08-06T05:49:54.544Z,16.06
2022-08-06T05:52:00.172Z,16.22
2022-08-06T05:54:42.639Z,16.03
2022-08-06T05:57:16.949Z,16.35
2022-08-06T05:59:57.337Z,16.35
2022-08-06T06:02:30.958Z,16.16
2022-08-06T06:06:06.344Z,16.49
2022-08-06T06:08:08.302Z,16.40
2022-08-06T06:10:53.325Z,16.38
2022-08-06T06:13:32.542Z,16.43
2022-08-06T06:16:28.658Z,16.30
2022-08-06T06:19:16.313Z,16.24
2022-08-06T06:21:58.208Z,16.03
2022-08-06T06:24:37.536Z,16.17
2022-08-06T06:27:35.875Z,16.30
2022-08-06T06:30:11.975Z,16.26
2022-08-06T06:33:01.235Z,16.49
2022-08-06T06:35:36.188Z,16.34
2022-08-06T06:38:26.092Z,16.73
2022-08-06T06:41:19.870Z,16.67
2022-08-06T06:43:58.277Z,16.43
2022-08-06T06:46:40.890Z,16.59
2022-08-06T06:50:00.272Z,16.48
2022-08-06T06:52:30.887Z,16.54
2022-08-06T06:55:18.957Z,16.63
2022-08-06T06:57:53.996Z,16.67
2022-08-06T07:00:45.441Z,16.96
2022-08-06T07:03:15.222Z,16.76
2022-08-06T07:06:05.341Z,17.14
2022-08-06T07:08:42.715Z,17.31
2022-08-06T07:11:20.728Z,17.29
2022-08-06T07:13:52.879Z,17.41
2022-08-06T07:16:35.213Z,17.33
2022-08-06T07:19:10.378Z,17.05
2022-08-06T07:21:51.368Z,16.70
2022-08-06T07:24:33.381Z,16.71
2022-08-06T07:27:14.491Z,16.50
2022-08-06T07:29:50.035Z,16.25
2022-08-06T07:32:32.357Z,16.30
2022-08-06T07:35:12.246Z,16.43
2022-08-06T07:37:55.554Z,16.25
2022-08-06T07:40:30.668Z,16.24
2022-08-06T07:43:11.495Z,16.26
2022-08-06T07:45:56.638Z,16.38
2022-08-06T07:48:33.355Z,16.55
2022-08-06T07:51:05.054Z,16.64
2022-08-06T07:53:53.164Z,16.95
2022-08-06T07:56:29.494Z,17.16
2022-08-06T07:59:00.078Z,16.99
2022-08-06T08:01:36.322Z,17.30
2022-08-06T08:04:34.800Z,17.22
2022-08-06T08:07:13.136Z,17.11
2022-08-06T08:10:02.039Z,17.43
2022-08-06T08:12:37.737Z,19.12
2022-08-06T08:15:17.878Z,20.47
2022-08-06T08:17:57.531Z,21.22
2022-08-06T08:20:34.413Z,21.32
2022-08-06T08:23:07.900Z,21.34
2022-08-06T08:25:42.171Z,22.24
2022-08-06T08:28:15.255Z,21.13
2022-08-06T08:30:49.430Z,20.66
2022-08-06T08:33:19.606Z,19.37
2022-08-06T08:36:00.915Z,19.24
2022-08-06T08:38:31.088Z,19.20
2022-08-06T08:41:05.766Z,18.51
2022-08-06T08:44:00.274Z,18.86
2022-08-06T08:46:32.410Z,19.32
2022-08-06T08:49:16.030Z,18.29
2022-08-06T08:51:47.784Z,18.88
2022-08-06T08:54:23.516Z,19.88
2022-08-06T08:57:11.685Z,20.99
2022-08-06T08:59:56.989Z,20.73
2022-08-06T09:02:30.631Z,20.81
2022-08-06T09:05:00.516Z,21.90
2022-08-06T09:07:36.932Z,22.11
2022-08-06T09:10:09.200Z,23.40
2022-08-06T09:12:45.428Z,23.48
2022-08-06T09:15:18.994Z,23.82
2022-08-06T09:18:12.479Z,23.04
2022-08-06T09:20:41.355Z,22.80
2022-08-06T09:23:19.186Z,22.49
2022-08-06T09:25:52.171Z,22.62
2022-08-06T09:28:36.353Z,22.94
2022-08-06T09:31:09.945Z,22.19
2022-08-06T09:34:29.093Z,21.22
2022-08-06T09:36:45.707Z,20.79
2022-08-06T09:39:14.682Z,20.92
2022-08-06T09:41:53.916Z,21.22
2022-08-06T09:44:35.262Z,21.12
2022-08-06T09:47:07.618Z,20.50
2022-08-06T09:50:00.509Z,21.03
2022-08-06T09:52:29.693Z,21.64
2022-08-06T09:55:01.226Z,21.75
2022-08-06T09:57:45.779Z,22.74
2022-08-06T10:00:29.199Z,23.25
2022-08-06T10:02:59.593Z,23.59
2022-08-06T10:05:50.473Z,25.00
2022-08-06T10:08:22.632Z,24.55
2022-08-06T10:10:53.350Z,26.10
2022-08-06T10:13:26.105Z,26.23
2022-08-06T10:16:00.659Z,26.44
2022-08-06T10:18:56.644Z,25.69
2022-08-06T10:21:40.171Z,25.24
2022-08-06T10:24:13.051Z,25.87
2022-08-06T10:26:44.938Z,25.53
2022-08-06T10:29:16.561Z,26.33
2022-08-06T10:31:52.751Z,26.30
2022-08-06T10:34:30.822Z,24.64
2022-08-06T10:37:10.938Z,25.04
2022-08-06T10:40:08.275Z,25.34
2022-08-06T10:42:40.556Z,25.15
2022-08-06T10:45:14.246Z,25.36
2022-08-06T10:48:58.345Z,25.22
2022-08-06T10:50:50.900Z,25.22
2022-08-06T10:54:02.645Z,26.42
2022-08-06T10:56:25.708Z,27.35
2022-08-06T10:59:00.838Z,24.94
2022-08-06T11:01:43.907Z,24.18
2022-08-06T11:04:35.123Z,24.74
2022-08-06T11:08:09.137Z,24.69
2022-08-06T11:10:51.323Z,25.40
2022-08-06T11:13:36.971Z,26.80
2022-08-06T11:16:27.959Z,26.37
2022-08-06T11:19:07.153Z,24.84
2022-08-06T11:21:59.083Z,25.57
2022-08-06T11:24:37.558Z,24.93
2022-08-06T11:27:11.029Z,25.63
2022-08-06T11:30:12.633Z,24.70
2022-08-06T11:32:50.941Z,26.36
2022-08-06T11:35:51.768Z,27.60
2022-08-06T11:39:10.019Z,28.21
2022-08-06T11:41:57.722Z,27.32
2022-08-06T11:44:34.347Z,27.28
2022-08-06T11:47:24.653Z,26.97
2022-08-06T11:50:02.965Z,26.58
2022-08-06T11:52:43.999Z,27.45
2022-08-06T11:55:22.817Z,25.39
2022-08-06T11:58:23.551Z,24.65
2022-08-06T12:01:03.989Z,24.21
2022-08-06T12:03:52.265Z,24.81
2022-08-06T12:06:26.601Z,26.72
2022-08-06T12:09:20.953Z,27.52
2022-08-06T12:11:53.889Z,28.78
2022-08-06T12:14:49.148Z,27.30
2022-08-06T12:17:20.093Z,25.90
2022-08-06T12:20:01.843Z,24.59
2022-08-06T12:22:33.927Z,24.74
2022-08-06T12:25:11.078Z,26.60
2022-08-06T12:27:54.341Z,27.44
2022-08-06T12:30:36.681Z,28.69
2022-08-06T12:33:15.495Z,28.96
2022-08-06T12:35:53.725Z,29.56
2022-08-06T12:38:28.467Z,27.63
2022-08-06T12:40:58.499Z,27.86
2022-08-06T12:43:46.304Z,28.20
2022-08-06T12:46:20.818Z,29.59
2022-08-06T12:48:53.179Z,29.93
2022-08-06T12:51:27.502Z,29.13
2022-08-06T12:54:00.305Z,29.18
2022-08-06T12:56:37.383Z,28.44
2022-08-06T12:59:22.698Z,28.01
2022-08-06T13:02:09.120Z,29.65
2022-08-06T13:04:44.577Z,29.37
2022-08-06T13:07:14.899Z,29.83
2022-08-06T13:10:33.011Z,28.83
2022-08-06T13:14:13.163Z,28.86
2022-08-06T13:16:02.033Z,28.77
2022-08-06T13:18:47.724Z,28.86
2022-08-06T13:21:22.120Z,28.82
2022-08-06T13:23:54.138Z,29.50
2022-08-06T13:26:26.849Z,29.56
2022-08-06T13:30:35.628Z,29.84
2022-08-06T13:32:19.109Z,29.53
2022-08-06T13:34:53.197Z,29.22
2022-08-06T13:37:55.689Z,28.14
2022-08-06T13:40:41.826Z,29.19
2022-08-06T13:43:39.872Z,29.20
2022-08-06T13:46:15.536Z,29.10
2022-08-06T13:48:49.508Z,28.13
2022-08-06T13:51:22.670Z,28.04
2022-08-06T13:53:59.238Z,28.07
2022-08-06T13:56:34.104Z,28.64
2022-08-06T13:59:02.454Z,28.90
2022-08-06T14:01:44.570Z,28.20
2022-08-06T14:04:22.912Z,28.26
2022-08-06T14:06:59.327Z,28.76
2022-08-06T14:09:58.035Z,27.58
2022-08-06T14:12:20.646Z,26.47
2022-08-06T14:14:50.546Z,26.40
2022-08-06T14:17:19.696Z,26.50
2022-08-06T14:20:16.296Z,26.45
2022-08-06T14:22:42.945Z,26.15
2022-08-06T14:25:11.997Z,26.76
2022-08-06T14:27:43.621Z,27.59
2022-08-06T14:30:29.673Z,27.92
2022-08-06T14:33:02.988Z,28.26
2022-08-06T14:35:50.448Z,27.35
2022-08-06T14:38:30.395Z,27.01
2022-08-06T14:41:27.315Z,28.37
2022-08-06T14:44:24.687Z,28.12
2022-08-06T14:46:53.225Z,28.57
2022-08-06T14:49:21.661Z,29.66
2022-08-06T14:52:19.919Z,28.64
2022-08-06T14:54:41.611Z,28.32
2022-08-06T14:57:15.151Z,28.31
2022-08-06T14:59:48.775Z,27.69
2022-08-06T15:02:24.862Z,28.00
2022-08-06T15:04:54.148Z,28.51
2022-08-06T15:07:26.991Z,28.48
2022-08-06T15:10:27.122Z,27.32
2022-08-06T15:13:01.214Z,27.31
2022-08-06T15:15:47.029Z,27.79
2022-08-06T15:18:54.122Z,28.23
2022-08-06T15:21:51.510Z,28.08
2022-08-06T15:24:31.660Z,26.88
2022-08-06T15:27:14.315Z,27.46
2022-08-06T15:29:47.393Z,28.19
2022-08-06T15:32:18.999Z,28.28
2022-08-06T15:34:51.253Z,28.01
2022-08-06T15:37:54.349Z,28.39
2022-08-06T15:40:13.193Z,28.24
2022-08-06T15:42:46.346Z,27.32
2022-08-06T15:45:49.893Z,28.26
2022-08-06T15:48:06.909Z,28.86
2022-08-06T15:50:43.092Z,28.81
2022-08-06T15:53:23.031Z,27.49
2022-08-06T15:55:54.920Z,27.59
2022-08-06T15:58:28.303Z,26.90
2022-08-06T16:01:03.572Z,26.63
2022-08-06T16:03:37.857Z,27.17
2022-08-06T16:06:25.911Z,27.54
2022-08-06T16:09:00.838Z,26.92
2022-08-06T16:11:48.295Z,26.61
2022-08-06T16:14:33.430Z,27.04
2022-08-06T16:17:09.965Z,26.55
2022-08-06T16:19:49.135Z,26.12
2022-08-06T16:22:20.457Z,25.77
2022-08-06T16:24:50.110Z,25.20
2022-08-06T16:27:27.327Z,25.65
2022-08-06T16:30:09.326Z,25.98
2022-08-06T16:32:38.767Z,25.54
2022-08-06T16:35:15.307Z,25.73
2022-08-06T16:37:51.699Z,25.02
2022-08-06T16:40:24.545Z,24.80
2022-08-06T16:42:56.847Z,25.04
2022-08-06T16:45:37.286Z,24.82
2022-08-06T16:48:22.081Z,24.44
2022-08-06T16:51:02.397Z,24.90
2022-08-06T16:54:14.443Z,25.18
2022-08-06T16:56:21.673Z,25.36
2022-08-06T16:58:54.739Z,25.45
2022-08-06T17:04:23.680Z,25.50
2022-08-06T17:06:56.334Z,25.25
2022-08-06T17:09:25.909Z,25.01
2022-08-06T17:12:00.531Z,24.66
2022-08-06T17:14:33.151Z,24.33
2022-08-06T17:17:06.884Z,24.26
2022-08-06T17:19:41.748Z,24.17
2022-08-06T17:22:12.764Z,24.12
2022-08-06T17:30:22.318Z,23.93
2022-08-06T17:32:54.406Z,23.84
2022-08-06T17:35:23.242Z,23.57
2022-08-06T17:38:16.189Z,23.32
2022-08-06T17:40:49.487Z,23.11
2022-08-06T17:43:22.407Z,23.05
2022-08-06T17:46:00.206Z,22.91
2022-08-06T17:48:32.310Z,22.83
2022-08-06T17:51:09.770Z,22.52
2022-08-06T17:53:53.325Z,22.38
2022-08-06T17:56:30.903Z,22.31
2022-08-06T17:59:17.489Z,22.25
2022-08-06T18:02:10.870Z,22.14
2022-08-06T18:05:02.551Z,22.03
2022-08-06T18:08:11.279Z,21.89
2022-08-06T18:10:31.114Z,21.83
2022-08-06T18:13:01.931Z,21.63
2022-08-06T18:15:40.488Z,21.47
2022-08-06T18:18:20.240Z,21.29
2022-08-06T18:20:50.172Z,21.11
2022-08-06T18:23:20.833Z,21.02
2022-08-06T18:25:56.121Z,20.81
2022-08-06T18:28:39.947Z,20.71
2022-08-06T18:31:19.947Z,20.55
2022-08-06T18:33:54.113Z,20.40
2022-08-06T18:36:32.927Z,20.32
2022-08-06T18:39:02.438Z,20.17
2022-08-06T18:41:33.065Z,19.90
2022-08-06T18:44:01.943Z,19.74
2022-08-06T18:46:57.508Z,19.65
2022-08-06T18:49:32.438Z,19.46
2022-08-06T18:52:24.900Z,19.30
2022-08-06T18:54:56.895Z,19.11
2022-08-06T18:57:37.954Z,18.80
2022-08-06T19:00:21.079Z,18.60
2022-08-06T19:02:52.751Z,18.41
2022-08-06T19:05:26.943Z,18.31
2022-08-06T19:07:58.655Z,18.23
2022-08-06T19:13:12.225Z,18.06
2022-08-06T19:15:52.101Z,18.09
2022-08-06T19:18:34.099Z,18.04
2022-08-06T19:21:16.988Z,17.83
2022-08-06T19:24:02.393Z,17.69
2022-08-06T19:26:40.540Z,17.52
2022-08-06T19:30:02.017Z,17.43
2022-08-06T19:33:21.449Z,17.37
2022-08-06T19:36:45.704Z,17.17
2022-08-06T19:39:54.152Z,17.08
2022-08-06T19:42:31.853Z,16.98
2022-08-06T19:45:04.247Z,16.94
2022-08-06T19:47:49.227Z,16.94
2022-08-06T19:50:19.916Z,16.86
2022-08-06T19:52:53.359Z,16.73
2022-08-06T19:56:06.787Z,16.59
2022-08-06T19:58:26.037Z,16.50
2022-08-06T20:01:31.240Z,16.39
2022-08-06T20:04:01.922Z,16.33
2022-08-06T20:07:01.778Z,16.36
2022-08-06T20:09:59.152Z,16.35
2022-08-06T20:12:32.330Z,16.26
2022-08-06T20:15:07.892Z,16.32
2022-08-06T20:17:48.646Z,16.21
2022-08-06T20:20:29.294Z,16.22
2022-08-06T20:23:08.651Z,16.17
2022-08-06T20:26:09.447Z,16.16
2022-08-06T20:29:07.547Z,16.23
2022-08-06T20:31:23.886Z,16.25
2022-08-06T20:33:58.275Z,16.30
2022-08-06T20:36:30.876Z,16.20
2022-08-06T20:39:00.839Z,16.13
2022-08-06T20:42:03.649Z,16.08
2022-08-06T20:44:23.507Z,16.06
2022-08-06T20:47:46.193Z,15.99
2022-08-06T20:50:02.928Z,16.01
2022-08-06T20:52:33.733Z,15.95
2022-08-06T20:55:04.309Z,15.88
2022-08-06T20:57:45.824Z,15.90
2022-08-06T21:00:21.873Z,15.89
2022-08-06T21:03:03.368Z,15.86
2022-08-06T21:05:51.161Z,15.87
2022-08-06T21:08:26.752Z,15.84
2022-08-06T21:10:58.428Z,15.88
2022-08-06T21:13:48.805Z,15.80
2022-08-06T21:16:28.706Z,15.76
2022-08-06T21:19:02.562Z,15.67
2022-08-06T21:21:31.417Z,15.59
2022-08-06T21:24:01.367Z,15.48
2022-08-06T21:26:34.756Z,15.37
2022-08-06T21:30:07.132Z,15.29
2022-08-06T21:31:57.964Z,15.25
2022-08-06T21:34:27.964Z,15.14
2022-08-06T21:36:57.074Z,15.13
2022-08-06T21:39:30.138Z,15.09
2022-08-06T21:42:16.780Z,15.03
2022-08-06T21:44:49.984Z,15.08
2022-08-06T21:47:19.708Z,15.01
2022-08-06T21:49:59.651Z,15.00
2022-08-06T21:52:35.724Z,14.93
2022-08-06T21:56:35.505Z,14.87
2022-08-06T21:58:02.855Z,14.79
2022-08-06T22:00:45.237Z,14.73
2022-08-06T22:04:38.732Z,14.63
2022-08-06T22:06:21.693Z,14.62
2022-08-06T22:08:57.357Z,14.62
2022-08-06T22:12:36.370Z,14.62
2022-08-06T22:14:28.403Z,14.55
2022-08-06T22:17:06.023Z,14.57
2022-08-06T22:19:39.195Z,14.61
2022-08-06T22:22:08.307Z,14.74
2022-08-06T22:24:39.210Z,14.82
2022-08-06T22:27:12.672Z,14.91
2022-08-06T22:30:04.407Z,14.96
2022-08-06T22:32:39.789Z,15.06
2022-08-06T22:35:11.342Z,15.12
2022-08-06T22:38:17.323Z,15.14
2022-08-06T22:40:30.087Z,15.25
2022-08-06T22:43:05.389Z,15.28
2022-08-06T22:46:01.250Z,15.31
2022-08-06T22:48:35.587Z,15.25
2022-08-06T22:51:10.843Z,15.25
2022-08-06T22:54:26.843Z,15.33
2022-08-06T22:56:38.199Z,15.49
2022-08-06T22:59:31.954Z,15.41
2022-08-06T23:02:06.157Z,15.38
2022-08-06T23:04:42.411Z,15.36
2022-08-06T23:07:25.220Z,15.39
2022-08-06T23:10:02.387Z,15.46
2022-08-06T23:12:36.673Z,15.48
2022-08-06T23:15:30.321Z,15.48
2022-08-06T23:18:00.382Z,15.46
2022-08-06T23:20:31.675Z,15.38
2022-08-06T23:23:03.018Z,15.42
2022-08-06T23:25:59.869Z,15.32
2022-08-06T23:28:22.925Z,15.18
2022-08-06T23:30:52.249Z,15.09
2022-08-06T23:33:20.972Z,15.02
2022-08-06T23:35:50.700Z,14.89
2022-08-06T23:38:31.677Z,14.77
2022-08-06T23:41:16.311Z,14.75
2022-08-06T23:43:49.741Z,14.60
2022-08-06T23:46:26.995Z,14.38
2022-08-06T23:48:56.473Z,14.38
2022-08-06T23:51:35.805Z,14.38
2022-08-06T23:54:23.042Z,14.37
2022-08-06T23:56:57.821Z,14.28
2022-08-06T23:59:44.691Z,14.29
